Mount Pearl, Canada
Current Conditions -  °F | °C
As of 4:00 AM on Wednesday 22 Oct 2014 (Local Time) from CYYT Reporting Station
Scattered Clouds Scattered Clouds  
Wind Chill:   Ceiling: Unl
Heat Index:   Visibility: 15mi
Dew Point:   Wind: 5mph
Humidity: 93%   Direction: 290°WNW
Pressure: 30.31"   Gusts: NA
Location:  47.52°N, 52.82°W
Report Text: CYYT 220600Z 29004KT 15SM SCT033 05/04 A3031 RMK SC3 SLP269
Loading
Personal Weather Stations






























Interactive Weather Map
Tropical Storm Tracking
New forecast layout! Learn more

10-Day Weather Forecast

Advertisements
Track Severe Weather on mobile